Time;durP1;ratioP1;P1;durP2;ratioP2;P2;SDS_P1;SDS_P2;PMS_P1;PMS_P2;Temp;Humidity;BMP_temperature;BMP_pressure;BME280_temperature;BME280_humidity;BME280_pressure;Samples;Min_cycle;Max_cycle;Signal;HPM_P1;HPM_P2
2022/10/04 00:01:00;;;;;;;1.57;1.20;;;11.40;98.20;;;;;;5040004;28;20688;-80
2022/10/04 00:03:32;;;;;;;1.50;1.10;;;11.40;98.20;;;;;;5060865;28;20839;-78
2022/10/04 00:06:00;;;;;;;1.53;1.20;;;11.40;98.20;;;;;;5040480;28;20905;-78
2022/10/04 00:08:35;;;;;;;1.90;1.70;;;11.40;98.20;;;;;;5060902;28;20803;-78
2022/10/04 00:11:07;;;;;;;1.53;1.10;;;11.40;98.20;;;;;;5036792;28;20561;-78
2022/10/04 00:13:37;;;;;;;1.50;1.10;;;11.40;98.20;;;;;;5061633;28;20470;-77
2022/10/04 00:16:05;;;;;;;1.53;1.20;;;11.40;98.20;;;;;;5034446;28;20466;-77
2022/10/04 00:18:40;;;;;;;1.53;1.13;;;11.30;98.20;;;;;;5050314;28;20477;-78
2022/10/04 00:21:08;;;;;;;1.53;1.10;;;11.40;98.20;;;;;;5040752;28;21289;-77
2022/10/04 00:24:09;;;;;;;1.53;1.10;;;11.40;98.20;;;;;;5062049;28;20849;-78
2022/10/04 00:27:19;;;;;;;2.23;2.03;;;11.40;98.20;;;;;;5045084;28;20880;-77
2022/10/04 00:29:50;;;;;;;1.50;1.10;;;11.40;98.20;;;;;;5053202;28;20458;-78
2022/10/04 00:32:29;;;;;;;1.60;1.20;;;11.40;98.20;;;;;;5049730;28;20507;-77
2022/10/04 00:34:58;;;;;;;1.50;1.10;;;11.40;98.20;;;;;;5045858;28;20869;-78
2022/10/04 00:37:27;;;;;;;1.50;1.10;;;11.40;98.20;;;;;;5050644;28;21059;-78
2022/10/04 00:40:02;;;;;;;2.57;2.37;;;11.40;98.20;;;;;;5051432;28;20772;-77
2022/10/04 00:42:56;;;;;;;1.57;1.10;;;11.40;98.20;;;;;;5050890;28;20508;-79
2022/10/04 00:45:36;;;;;;;1.50;1.10;;;11.40;98.20;;;;;;5034952;28;20500;-77
2022/10/04 00:48:26;;;;;;;1.53;1.20;;;11.40;98.20;;;;;;5052401;28;20493;-79
2022/10/04 00:50:59;;;;;;;1.50;1.10;;;11.40;98.20;;;;;;5039548;28;20544;-79
2022/10/04 00:53:40;;;;;;;1.50;1.10;;;11.30;98.20;;;;;;5061123;28;20951;-77
2022/10/04 00:56:11;;;;;;;1.57;1.10;;;11.30;98.20;;;;;;5041291;28;20886;-76
2022/10/04 00:58:47;;;;;;;1.50;1.10;;;11.30;98.20;;;;;;5062782;28;20888;-77
2022/10/04 01:01:17;;;;;;;1.70;1.50;;;11.40;98.20;;;;;;5036331;28;20512;-76
2022/10/04 01:03:46;;;;;;;1.53;1.10;;;11.40;98.20;;;;;;5065163;28;20462;-77
2022/10/04 01:06:15;;;;;;;1.53;1.13;;;11.30;98.20;;;;;;5028524;28;20515;-78
2022/10/04 01:08:48;;;;;;;1.53;1.10;;;11.40;98.20;;;;;;5058323;28;20850;-77
2022/10/04 01:11:19;;;;;;;1.50;1.10;;;11.40;98.20;;;;;;5040586;28;20493;-77
2022/10/04 01:13:50;;;;;;;1.50;1.10;;;11.40;98.20;;;;;;5066723;28;20474;-77
2022/10/04 01:16:19;;;;;;;1.53;1.10;;;11.40;98.20;;;;;;5040854;28;20568;-77
2022/10/04 01:18:47;;;;;;;1.50;1.10;;;11.40;98.20;;;;;;5058920;28;20561;-78
2022/10/04 01:21:27;;;;;;;1.50;1.10;;;11.40;98.20;;;;;;5040117;28;20872;-77
2022/10/04 01:24:16;;;;;;;1.50;1.10;;;11.40;98.20;;;;;;5058245;28;20485;-77
2022/10/04 01:26:45;;;;;;;1.57;1.10;;;11.40;98.20;;;;;;5043502;28;20469;-77
2022/10/04 01:29:15;;;;;;;1.53;1.17;;;11.40;98.20;;;;;;5055533;28;20459;-77
2022/10/04 01:31:45;;;;;;;1.50;1.00;;;11.30;98.20;;;;;;5043681;28;20535;-77
2022/10/04 01:34:15;;;;;;;1.50;1.20;;;11.30;98.20;;;;;;5055017;28;20493;-76
2022/10/04 01:36:43;;;;;;;1.50;1.10;;;11.30;98.20;;;;;;5044340;28;20533;-77
2022/10/04 01:39:12;;;;;;;1.50;1.10;;;11.30;98.20;;;;;;5058752;28;20469;-78
2022/10/04 01:41:46;;;;;;;1.50;1.10;;;11.30;98.20;;;;;;5042952;28;20494;-77
2022/10/04 01:44:20;;;;;;;1.50;1.10;;;11.30;98.20;;;;;;5055616;28;20498;-77
2022/10/04 01:46:50;;;;;;;1.53;1.17;;;11.30;98.20;;;;;;5044198;28;20564;-77
2022/10/04 01:49:20;;;;;;;1.53;1.10;;;11.20;98.20;;;;;;5055610;28;20548;-76
2022/10/04 01:51:55;;;;;;;1.53;1.10;;;11.20;98.20;;;;;;5043635;28;20493;-78
2022/10/04 01:54:34;;;;;;;1.50;1.10;;;11.20;98.20;;;;;;5047475;28;20981;-76
2022/10/04 01:57:07;;;;;;;1.53;1.10;;;11.20;98.20;;;;;;5044933;28;20481;-77
2022/10/04 01:59:42;;;;;;;1.57;1.20;;;11.20;98.20;;;;;;5052525;28;20528;-77
2022/10/04 02:02:19;;;;;;;1.70;1.40;;;11.20;98.20;;;;;;5046359;28;20493;-77
2022/10/04 02:04:52;;;;;;;1.50;1.10;;;11.20;98.20;;;;;;5051068;28;20577;-77
2022/10/04 02:07:19;;;;;;;1.50;1.10;;;11.20;98.20;;;;;;5052201;28;20511;-76
2022/10/04 02:09:50;;;;;;;1.53;1.10;;;11.20;98.20;;;;;;5053192;28;20969;-76
2022/10/04 02:12:18;;;;;;;1.50;1.10;;;11.20;98.20;;;;;;5047239;28;20890;-77
2022/10/04 02:14:52;;;;;;;1.57;1.10;;;11.20;98.20;;;;;;5054793;28;20465;-77
2022/10/04 02:17:22;;;;;;;1.70;1.43;;;11.20;98.20;;;;;;5049646;28;21045;-76
2022/10/04 02:19:50;;;;;;;1.53;1.10;;;11.20;98.20;;;;;;5051976;28;20549;-76
2022/10/04 02:22:18;;;;;;;1.60;1.20;;;11.20;98.20;;;;;;5051049;28;20473;-76
2022/10/04 02:24:49;;;;;;;1.50;1.10;;;11.10;98.20;;;;;;5052916;28;20489;-76
2022/10/04 02:27:16;;;;;;;1.53;1.10;;;11.20;98.20;;;;;;5050887;28;20998;-77
2022/10/04 02:29:43;;;;;;;1.57;1.10;;;11.10;98.20;;;;;;5054711;28;20470;-77
2022/10/04 02:34:58;;;;;;;1.60;1.17;;;11.10;98.20;;;;;;5053721;28;20453;-76
2022/10/04 02:37:27;;;;;;;1.50;1.10;;;11.10;98.20;;;;;;5056156;28;20481;-76
2022/10/04 02:40:03;;;;;;;1.60;1.20;;;11.10;98.20;;;;;;5054435;28;20466;-76
2022/10/04 02:42:39;;;;;;;1.60;1.20;;;11.10;98.20;;;;;;5053028;28;20513;-76
2022/10/04 02:45:16;;;;;;;1.60;1.20;;;11.10;98.20;;;;;;5050872;28;20492;-77
2022/10/04 02:47:47;;;;;;;1.57;1.17;;;11.10;98.20;;;;;;5050312;28;20523;-76
2022/10/04 02:50:23;;;;;;;1.50;1.10;;;11.10;98.20;;;;;;5050817;28;20470;-76
2022/10/04 02:52:55;;;;;;;1.50;1.10;;;11.10;98.20;;;;;;5055321;28;21069;-76
2022/10/04 02:55:27;;;;;;;1.50;1.10;;;11.00;98.20;;;;;;5051115;28;20827;-77
2022/10/04 02:57:55;;;;;;;1.57;1.10;;;11.00;98.20;;;;;;5054947;28;20485;-76
2022/10/04 03:00:25;;;;;;;1.57;1.20;;;11.00;98.20;;;;;;5049932;28;20882;-76
2022/10/04 03:03:17;;;;;;;1.50;1.10;;;11.00;98.20;;;;;;5054939;28;20488;-76
2022/10/04 03:05:47;;;;;;;1.60;1.20;;;11.00;98.20;;;;;;5044477;28;20488;-76
2022/10/04 03:08:14;;;;;;;1.57;1.10;;;11.00;98.20;;;;;;5036277;28;20480;-76
2022/10/04 03:10:44;;;;;;;1.53;1.10;;;11.00;98.20;;;;;;5049670;28;20454;-76
2022/10/04 03:13:14;;;;;;;1.50;1.10;;;11.00;98.20;;;;;;5054593;28;21131;-76
2022/10/04 03:15:43;;;;;;;1.57;1.13;;;11.10;98.20;;;;;;5049895;28;20624;-77
2022/10/04 03:18:10;;;;;;;1.60;1.20;;;11.10;98.20;;;;;;5051893;28;20580;-76
2022/10/04 03:20:39;;;;;;;1.50;1.10;;;11.00;98.20;;;;;;5050063;28;20934;-76
2022/10/04 03:23:07;;;;;;;1.50;1.10;;;11.00;98.20;;;;;;5054915;28;20513;-76
2022/10/04 03:25:50;;;;;;;1.53;1.10;;;11.00;98.20;;;;;;5046765;28;20977;-76
2022/10/04 03:28:18;;;;;;;1.50;1.10;;;11.00;98.20;;;;;;5038327;28;20470;-76
2022/10/04 03:30:46;;;;;;;1.50;1.10;;;11.00;98.20;;;;;;5049873;28;20493;-76
2022/10/04 03:33:18;;;;;;;1.50;1.10;;;11.00;98.20;;;;;;5054689;28;20474;-76
2022/10/04 03:35:48;;;;;;;1.53;1.17;;;11.00;98.20;;;;;;5049616;28;20512;-76
2022/10/04 03:38:17;;;;;;;1.53;1.10;;;11.00;98.20;;;;;;5037947;28;20478;-76
2022/10/04 03:40:52;;;;;;;1.57;1.20;;;11.00;98.20;;;;;;5049380;28;21099;-76
2022/10/04 03:43:23;;;;;;;1.50;1.10;;;11.00;98.20;;;;;;5032880;28;21020;-76
2022/10/04 03:45:51;;;;;;;1.57;1.20;;;10.90;98.20;;;;;;5039892;28;20494;-77
2022/10/04 03:48:27;;;;;;;1.50;1.10;;;10.90;98.20;;;;;;5061900;28;20454;-76
2022/10/04 03:50:54;;;;;;;1.50;1.10;;;10.80;98.20;;;;;;5039094;28;20485;-77
2022/10/04 03:53:30;;;;;;;1.50;1.10;;;10.70;98.20;;;;;;5059343;28;20474;-76
2022/10/04 03:56:00;;;;;;;1.57;1.20;;;10.80;98.20;;;;;;5039884;28;20469;-76
2022/10/04 03:58:30;;;;;;;1.60;1.27;;;10.80;98.20;;;;;;5063127;28;20558;-76
2022/10/04 04:01:13;;;;;;;1.50;1.10;;;10.70;98.20;;;;;;5039028;28;20490;-76
2022/10/04 04:03:51;;;;;;;1.50;1.10;;;10.70;98.20;;;;;;5061174;28;20473;-76
2022/10/04 04:06:19;;;;;;;1.53;1.10;;;10.70;98.20;;;;;;5042314;28;20879;-76
2022/10/04 04:08:49;;;;;;;1.53;1.10;;;10.70;98.20;;;;;;5059212;28;20505;-76
2022/10/04 04:11:21;;;;;;;1.50;1.10;;;10.70;98.20;;;;;;5040945;28;20526;-77
2022/10/04 04:13:55;;;;;;;1.57;1.20;;;10.70;98.20;;;;;;5058355;28;20524;-76
2022/10/04 04:16:25;;;;;;;1.50;1.10;;;10.70;98.20;;;;;;5041089;28;20483;-76
2022/10/04 04:18:53;;;;;;;1.60;1.20;;;10.60;98.20;;;;;;5057212;28;20474;-76
2022/10/04 04:21:23;;;;;;;1.50;1.10;;;10.60;98.20;;;;;;5040212;28;21312;-76
2022/10/04 04:23:54;;;;;;;1.50;1.20;;;10.60;98.20;;;;;;5058654;28;20462;-77
2022/10/04 04:26:28;;;;;;;1.50;1.10;;;10.60;98.20;;;;;;5044309;28;20474;-77
2022/10/04 04:28:58;;;;;;;1.50;1.10;;;10.50;98.20;;;;;;5050028;28;20462;-76
2022/10/04 04:31:27;;;;;;;1.50;1.10;;;10.50;98.20;;;;;;5052997;28;20488;-78
2022/10/04 04:33:58;;;;;;;1.50;1.10;;;10.50;98.20;;;;;;5070081;28;20467;-76
2022/10/04 04:36:26;;;;;;;2.47;1.67;;;10.40;98.20;;;;;;5048869;28;20571;-77
2022/10/04 04:41:47;;;;;;;1.53;1.20;;;10.40;98.20;;;;;;5028214;28;20513;-74
2022/10/04 04:44:19;;;;;;;1.70;1.47;;;10.30;98.20;;;;;;5051971;28;20498;-75
2022/10/04 04:46:46;;;;;;;1.53;1.20;;;10.30;98.20;;;;;;5040721;28;20520;-75
2022/10/04 04:49:16;;;;;;;1.53;1.07;;;10.30;98.20;;;;;;5054235;28;20545;-75
2022/10/04 04:51:49;;;;;;;1.53;1.20;;;10.30;98.20;;;;;;5044832;28;20854;-75
2022/10/04 04:54:18;;;;;;;1.57;1.10;;;10.30;98.20;;;;;;5054578;28;20466;-76
2022/10/04 04:56:50;;;;;;;1.57;1.10;;;10.30;98.20;;;;;;5046460;28;20509;-75
2022/10/04 04:59:17;;;;;;;1.57;1.10;;;10.30;98.20;;;;;;5055170;28;20471;-76
2022/10/04 05:01:46;;;;;;;1.60;1.20;;;10.30;98.20;;;;;;5038213;28;20990;-75
2022/10/04 05:04:20;;;;;;;1.50;1.10;;;10.30;98.20;;;;;;5049325;28;20493;-75
2022/10/04 05:06:58;;;;;;;1.50;1.10;;;10.30;98.20;;;;;;5044510;28;20491;-75
2022/10/04 05:09:29;;;;;;;1.60;1.20;;;10.30;98.20;;;;;;5053157;28;20473;-75
2022/10/04 05:12:06;;;;;;;1.50;1.20;;;10.30;98.20;;;;;;5039975;28;21071;-75
2022/10/04 05:14:34;;;;;;;1.50;1.10;;;10.40;98.20;;;;;;5052068;28;20557;-75
2022/10/04 05:17:01;;;;;;;1.60;1.20;;;10.40;98.20;;;;;;5045065;28;20875;-75
2022/10/04 05:19:31;;;;;;;1.83;1.60;;;10.40;98.20;;;;;;5050371;28;20470;-75
2022/10/04 05:22:00;;;;;;;1.60;1.20;;;10.40;98.20;;;;;;5042810;28;20568;-75
2022/10/04 05:24:30;;;;;;;1.53;1.20;;;10.40;98.20;;;;;;5053241;28;20555;-75
2022/10/04 05:27:01;;;;;;;1.57;1.20;;;10.40;98.20;;;;;;5043108;28;20975;-75
2022/10/04 05:29:32;;;;;;;1.53;1.20;;;10.30;98.20;;;;;;5053156;28;20723;-75
2022/10/04 05:32:16;;;;;;;1.60;1.20;;;10.30;98.20;;;;;;5045342;28;20489;-74
2022/10/04 05:34:48;;;;;;;1.53;1.13;;;10.30;98.20;;;;;;5049936;28;20467;-75
2022/10/04 05:37:30;;;;;;;1.50;1.20;;;10.30;98.20;;;;;;5046727;28;20485;-74
2022/10/04 05:40:16;;;;;;;1.60;1.30;;;10.30;98.20;;;;;;5048902;28;20557;-74
2022/10/04 05:42:46;;;;;;;1.53;1.20;;;10.20;98.20;;;;;;5049514;28;21064;-74
2022/10/04 05:45:17;;;;;;;1.60;1.20;;;10.20;98.20;;;;;;5046707;28;21211;-75
2022/10/04 05:47:46;;;;;;;1.50;1.17;;;10.20;98.20;;;;;;5050181;28;20904;-75
2022/10/04 05:50:18;;;;;;;1.60;1.20;;;10.20;98.20;;;;;;5046634;28;21017;-75
2022/10/04 05:52:48;;;;;;;1.53;1.10;;;10.20;98.20;;;;;;5032722;28;20504;-74
2022/10/04 05:55:27;;;;;;;1.60;1.30;;;10.20;98.20;;;;;;5046333;28;20485;-74
2022/10/04 05:58:17;;;;;;;1.50;1.10;;;10.10;98.20;;;;;;5049463;28;20485;-74
2022/10/04 06:00:59;;;;;;;1.53;1.10;;;10.10;98.20;;;;;;5046694;28;20590;-74
2022/10/04 06:03:49;;;;;;;1.50;1.10;;;10.10;98.20;;;;;;5033305;28;20531;-74
2022/10/04 06:06:22;;;;;;;1.50;1.10;;;10.10;98.20;;;;;;5037845;28;20551;-75
2022/10/04 06:08:58;;;;;;;1.50;1.20;;;10.20;98.20;;;;;;5057836;28;20465;-77
2022/10/04 06:11:38;;;;;;;1.57;1.13;;;10.20;98.20;;;;;;5039528;28;20484;-76
2022/10/04 06:14:34;;;;;;;1.70;1.60;;;10.20;98.20;;;;;;5054716;28;20978;-75
2022/10/04 06:17:23;;;;;;;1.60;1.30;;;10.20;98.20;;;;;;5041760;28;20542;-75
2022/10/04 06:20:25;;;;;;;1.50;1.10;;;10.20;98.20;;;;;;5049099;28;20462;-75
2022/10/04 06:22:59;;;;;;;1.60;1.30;;;10.30;98.20;;;;;;5055271;28;20477;-75
2022/10/04 06:25:29;;;;;;;1.57;1.20;;;10.30;98.20;;;;;;5045455;28;21023;-75
2022/10/04 06:28:04;;;;;;;1.60;1.20;;;10.30;98.20;;;;;;5051704;28;20481;-75
2022/10/04 06:30:44;;;;;;;1.57;1.10;;;10.40;98.20;;;;;;5043587;28;20476;-75
2022/10/04 06:33:29;;;;;;;1.57;1.20;;;10.40;98.20;;;;;;5051058;28;20770;-75
2022/10/04 06:36:29;;;;;;;1.53;1.20;;;10.50;98.20;;;;;;5035486;28;20835;-76
2022/10/04 06:39:24;;;;;;;1.53;1.10;;;10.60;98.20;;;;;;5054427;28;20477;-76
2022/10/04 06:42:11;;;;;;;1.60;1.20;;;10.70;98.20;;;;;;5046241;28;20494;-76
2022/10/04 06:45:05;;;;;;;1.53;1.10;;;10.70;98.20;;;;;;5053311;28;20481;-78
2022/10/04 06:47:50;;;;;;;1.60;1.30;;;10.80;98.20;;;;;;5046505;28;20531;-75
2022/10/04 06:50:27;;;;;;;1.50;1.10;;;10.80;98.20;;;;;;5046980;28;20896;-76
2022/10/04 06:53:14;;;;;;;1.53;1.10;;;10.80;98.20;;;;;;5052301;28;20530;-81
2022/10/04 06:56:08;;;;;;;1.57;1.20;;;11.00;98.20;;;;;;5047085;28;20648;-77
2022/10/04 06:59:04;;;;;;;1.53;1.10;;;11.10;98.20;;;;;;5037305;28;20570;-75
2022/10/04 07:01:33;;;;;;;1.60;1.20;;;11.20;98.20;;;;;;5045433;28;20492;-75
2022/10/04 07:04:12;;;;;;;1.50;1.10;;;11.30;98.20;;;;;;5059203;28;21139;-74
2022/10/04 07:06:46;;;;;;;1.57;1.10;;;11.30;98.20;;;;;;5043437;28;20513;-75
2022/10/04 07:09:20;;;;;;;1.57;1.10;;;11.50;98.20;;;;;;5055423;28;20466;-75
2022/10/04 07:11:53;;;;;;;1.57;1.10;;;11.50;98.20;;;;;;5046575;28;20477;-75
2022/10/04 07:14:26;;;;;;;1.53;1.20;;;11.60;98.20;;;;;;5056739;28;20836;-75
2022/10/04 07:16:58;;;;;;;1.50;1.00;;;11.80;98.20;;;;;;5045558;28;20564;-75
2022/10/04 07:19:37;;;;;;;1.70;1.30;;;11.80;98.20;;;;;;5056390;28;20839;-75
2022/10/04 07:22:15;;;;;;;1.57;1.17;;;12.00;98.20;;;;;;5047367;28;20492;-75
2022/10/04 07:24:51;;;;;;;1.57;1.10;;;12.00;98.20;;;;;;5052030;28;20468;-74
2022/10/04 07:27:25;;;;;;;1.50;1.00;;;12.20;98.20;;;;;;5036953;28;21025;-74
2022/10/04 07:29:53;;;;;;;1.50;1.10;;;12.20;98.20;;;;;;5049195;28;20462;-75
2022/10/04 07:32:25;;;;;;;1.50;1.00;;;12.30;98.20;;;;;;5049791;28;20481;-75
2022/10/04 07:34:59;;;;;;;1.50;1.10;;;12.30;98.20;;;;;;5052519;28;20947;-76
2022/10/04 07:37:29;;;;;;;1.60;1.20;;;12.40;98.20;;;;;;5050273;28;20477;-75
2022/10/04 07:40:01;;;;;;;1.60;1.00;;;12.40;98.20;;;;;;5050611;28;20507;-75
2022/10/04 07:42:33;;;;;;;1.53;1.00;;;12.50;98.20;;;;;;5051018;28;20579;-75
2022/10/04 07:45:10;;;;;;;1.50;1.10;;;12.50;98.20;;;;;;5051384;28;20472;-75
2022/10/04 07:47:38;;;;;;;1.50;1.00;;;12.50;98.20;;;;;;5049781;28;20499;-75
2022/10/04 07:50:22;;;;;;;1.60;1.30;;;12.50;98.20;;;;;;5050293;28;20462;-75
2022/10/04 07:53:05;;;;;;;1.60;1.13;;;12.50;98.20;;;;;;5052728;28;20523;-75
2022/10/04 07:55:41;;;;;;;1.50;1.00;;;12.50;98.20;;;;;;5047650;28;20523;-75
2022/10/04 07:58:22;;;;;;;1.53;1.00;;;12.40;98.20;;;;;;5052552;28;20527;-75
2022/10/04 08:00:55;;;;;;;1.57;1.10;;;12.40;98.20;;;;;;5046511;28;20852;-75
2022/10/04 08:03:38;;;;;;;1.53;1.10;;;12.40;98.20;;;;;;5036857;28;21066;-75
2022/10/04 08:06:17;;;;;;;1.50;1.00;;;12.40;98.20;;;;;;5040037;28;20490;-75
2022/10/04 08:09:17;;;;;;;1.50;1.00;;;12.50;98.20;;;;;;5058759;28;20466;-74
2022/10/04 08:11:53;;;;;;;1.60;1.20;;;12.50;98.20;;;;;;5043973;28;20491;-75
2022/10/04 08:14:31;;;;;;;1.60;1.10;;;12.40;98.20;;;;;;5053664;28;20457;-75
2022/10/04 08:17:08;;;;;;;1.60;1.20;;;12.40;98.20;;;;;;5035097;28;20474;-75
2022/10/04 08:19:47;;;;;;;1.50;1.00;;;12.40;98.20;;;;;;5046801;28;20476;-75
2022/10/04 08:22:26;;;;;;;1.50;1.10;;;12.50;98.20;;;;;;5045293;28;20566;-75
2022/10/04 08:25:03;;;;;;;1.60;1.10;;;12.60;98.20;;;;;;5051582;28;20758;-76
2022/10/04 08:30:59;;;;;;;1.50;1.10;;;12.60;98.20;;;;;;5027591;28;20457;-75
2022/10/04 08:33:45;;;;;;;1.53;1.07;;;12.70;98.20;;;;;;5038754;28;20479;-75
2022/10/04 08:36:24;;;;;;;1.53;1.10;;;12.80;98.20;;;;;;5038100;28;20481;-76
2022/10/04 08:38:57;;;;;;;1.53;1.10;;;12.90;98.20;;;;;;5056595;28;20984;-75
2022/10/04 08:42:00;;;;;;;1.60;1.00;;;13.10;98.20;;;;;;5040634;28;20576;-76
2022/10/04 08:45:01;;;;;;;1.60;1.10;;;13.20;98.20;;;;;;5053922;28;20869;-75
2022/10/04 08:47:59;;;;;;;1.57;1.07;;;13.30;98.20;;;;;;5039083;28;20515;-77
2022/10/04 08:50:55;;;;;;;1.50;1.00;;;13.50;98.20;;;;;;5028045;28;20479;-78
2022/10/04 08:53:50;;;;;;;1.60;1.10;;;13.70;98.20;;;;;;5010573;28;20568;-77
2022/10/04 08:56:31;;;;;;;1.53;1.03;;;14.00;98.20;;;;;;4998819;28;20552;-77
2022/10/04 08:59:32;;;;;;;1.60;1.23;;;14.10;98.20;;;;;;5056566;28;20470;-78
2022/10/04 09:02:33;;;;;;;1.53;1.00;;;14.20;98.20;;;;;;5043491;28;20785;-79
2022/10/04 09:05:18;;;;;;;1.50;1.00;;;14.40;98.20;;;;;;5012166;28;20458;-77
2022/10/04 09:08:13;;;;;;;1.60;1.10;;;14.50;98.20;;;;;;5035472;28;20470;-78
2022/10/04 09:10:59;;;;;;;1.70;1.27;;;14.60;98.20;;;;;;5048805;28;20489;-78
2022/10/04 09:13:54;;;;;;;1.57;1.03;;;14.70;98.20;;;;;;5036221;28;20505;-79
2022/10/04 09:16:27;;;;;;;1.57;1.00;;;14.90;98.20;;;;;;5040993;28;21029;-79
2022/10/04 09:19:20;;;;;;;1.60;1.20;;;15.10;98.20;;;;;;5059677;28;20589;-78
2022/10/04 09:22:18;;;;;;;2.27;2.03;;;15.20;98.20;;;;;;5044575;28;20489;-80
2022/10/04 09:25:07;;;;;;;1.53;1.00;;;15.40;98.20;;;;;;5047577;28;20502;-79
2022/10/04 09:28:07;;;;;;;1.60;1.00;;;15.50;98.20;;;;;;5049463;28;20679;-78
2022/10/04 09:31:01;;;;;;;1.70;1.40;;;15.80;98.20;;;;;;5046936;28;20938;-80
2022/10/04 09:34:01;;;;;;;1.60;1.00;;;16.00;98.20;;;;;;5016308;28;20566;-79
2022/10/04 09:36:52;;;;;;;2.07;1.87;;;16.30;98.20;;;;;;5020984;28;20477;-79
2022/10/04 09:39:41;;;;;;;1.60;1.00;;;16.60;98.20;;;;;;5054680;28;20465;-80
2022/10/04 09:42:26;;;;;;;1.53;1.00;;;16.80;98.20;;;;;;5047317;28;20488;-79
2022/10/04 09:45:26;;;;;;;1.53;0.90;;;17.10;98.20;;;;;;5048937;28;20476;-78
2022/10/04 09:48:17;;;;;;;1.60;1.00;;;17.30;98.20;;;;;;5049611;28;20488;-78
2022/10/04 09:51:18;;;;;;;1.50;0.93;;;17.40;97.60;;;;;;5045162;28;20473;-79
2022/10/04 09:54:11;;;;;;;1.50;1.00;;;17.60;98.20;;;;;;5002478;28;20829;-78
2022/10/04 09:57:13;;;;;;;1.60;1.00;;;17.80;98.10;;;;;;5040725;28;20483;-79
2022/10/04 09:59:58;;;;;;;1.53;0.90;;;17.90;96.80;;;;;;5044561;28;20629;-79
2022/10/04 10:03:00;;;;;;;1.53;0.90;;;17.90;96.10;;;;;;5033539;28;20940;-79
2022/10/04 10:05:45;;;;;;;1.50;0.90;;;18.00;96.40;;;;;;5045802;28;20485;-78
2022/10/04 10:08:20;;;;;;;1.57;1.00;;;18.20;95.50;;;;;;5051948;28;20482;-79
2022/10/04 10:14:29;;;;;;;1.50;0.90;;;18.40;95.70;;;;;;5033933;28;21020;-79
2022/10/04 10:17:05;;;;;;;1.53;1.00;;;18.50;94.20;;;;;;5012823;28;20939;-80
2022/10/04 10:20:02;;;;;;;1.53;0.90;;;18.50;93.10;;;;;;5052551;28;20462;-79
2022/10/04 10:22:53;;;;;;;1.57;1.00;;;18.50;93.80;;;;;;5048685;28;20477;-80
2022/10/04 10:25:40;;;;;;;1.57;1.00;;;18.60;94.50;;;;;;5044409;28;20524;-79
2022/10/04 10:28:38;;;;;;;1.50;0.90;;;18.80;94.40;;;;;;5051596;28;20481;-78
2022/10/04 10:31:34;;;;;;;1.53;0.90;;;18.90;93.40;;;;;;5033666;28;20501;-80
2022/10/04 10:34:29;;;;;;;1.50;0.90;;;19.00;92.20;;;;;;5058273;28;20511;-79
2022/10/04 10:37:09;;;;;;;1.50;0.90;;;19.00;93.50;;;;;;5043307;28;20863;-79
2022/10/04 10:39:56;;;;;;;1.50;0.90;;;19.10;92.70;;;;;;5055769;28;20458;-78
2022/10/04 10:43:02;;;;;;;1.50;0.90;;;19.20;92.50;;;;;;5055030;28;20501;-78
2022/10/04 10:45:55;;;;;;;1.50;0.90;;;19.40;91.50;;;;;;5045063;28;20474;-78
2022/10/04 10:48:34;;;;;;;1.50;0.90;;;19.60;91.10;;;;;;5019033;28;20494;-79
2022/10/04 10:51:09;;;;;;;1.53;0.90;;;19.70;91.80;;;;;;5021836;28;20506;-79
2022/10/04 10:54:25;;;;;;;1.50;0.97;;;19.70;89.40;;;;;;5041209;28;20474;-79
2022/10/04 10:57:09;;;;;;;1.50;0.90;;;19.80;90.90;;;;;;5027384;28;20469;-79
2022/10/04 11:00:08;;;;;;;1.50;0.90;;;20.00;89.70;;;;;;5034892;28;20848;-78
2022/10/04 11:03:10;;;;;;;1.50;0.90;;;20.20;89.80;;;;;;5032709;28;20613;-78
2022/10/04 11:06:05;;;;;;;1.70;1.53;;;20.30;87.80;;;;;;5029371;28;20478;-80
2022/10/04 11:09:12;;;;;;;1.50;0.90;;;20.30;88.80;;;;;;5041307;28;20906;-79
2022/10/04 11:12:18;;;;;;;1.50;0.90;;;20.40;88.40;;;;;;5016829;28;21065;-79
2022/10/04 11:15:05;;;;;;;1.50;0.90;;;20.60;88.20;;;;;;5049952;28;20458;-81
2022/10/04 11:18:07;;;;;;;1.50;0.90;;;20.70;86.30;;;;;;5051951;28;20997;-79
2022/10/04 11:21:20;;;;;;;1.50;0.90;;;20.90;87.30;;;;;;5051641;28;20465;-79
2022/10/04 11:24:22;;;;;;;1.50;0.90;;;21.20;86.60;;;;;;5056498;28;20478;-79
2022/10/04 11:27:11;;;;;;;1.50;0.90;;;21.00;85.90;;;;;;5045291;28;20945;-78
2022/10/04 11:30:02;;;;;;;1.50;0.90;;;21.10;86.50;;;;;;5053735;28;20541;-78
2022/10/04 11:33:13;;;;;;;1.50;0.90;;;21.30;87.00;;;;;;5054679;28;20482;-79
2022/10/04 11:36:21;;;;;;;1.50;0.90;;;21.50;85.90;;;;;;5047112;28;20520;-79
2022/10/04 11:39:02;;;;;;;1.50;0.90;;;21.60;83.10;;;;;;5036307;28;20474;-77
2022/10/04 11:41:43;;;;;;;1.50;0.90;;;21.50;84.60;;;;;;5032492;28;21010;-78
2022/10/04 11:44:53;;;;;;;1.50;0.80;;;21.50;84.50;;;;;;5042969;28;20461;-77
2022/10/04 11:47:45;;;;;;;1.50;0.90;;;21.60;83.50;;;;;;5033507;28;20526;-78
2022/10/04 11:50:28;;;;;;;1.50;0.90;;;21.60;84.80;;;;;;5050040;28;20471;-78
2022/10/04 11:53:29;;;;;;;1.70;1.00;;;21.60;83.90;;;;;;5043294;28;20497;-77
2022/10/04 11:56:16;;;;;;;1.50;0.90;;;21.80;84.60;;;;;;5036844;28;20461;-77
2022/10/04 11:58:57;;;;;;;1.53;1.03;;;21.70;83.70;;;;;;5057327;28;20577;-77
2022/10/04 12:01:51;;;;;;;1.50;0.90;;;21.80;83.40;;;;;;5041329;28;20473;-77
2022/10/04 12:04:59;;;;;;;1.53;1.00;;;22.00;84.30;;;;;;5042765;28;20852;-77
2022/10/04 12:07:42;;;;;;;1.50;0.90;;;22.20;83.80;;;;;;5046350;28;20808;-77
2022/10/04 12:10:23;;;;;;;1.70;1.40;;;22.40;82.80;;;;;;5032351;28;20455;-77
2022/10/04 12:13:26;;;;;;;1.50;0.90;;;22.30;81.20;;;;;;5048599;28;20473;-77
2022/10/04 12:16:15;;;;;;;1.50;0.90;;;22.30;83.40;;;;;;5018348;28;20550;-76
2022/10/04 12:19:29;;;;;;;1.50;0.90;;;22.50;82.90;;;;;;5050640;28;20845;-77
2022/10/04 12:22:12;;;;;;;1.50;0.90;;;22.50;81.90;;;;;;5035391;28;20968;-76
2022/10/04 12:25:08;;;;;;;1.50;0.90;;;22.50;81.30;;;;;;5035880;28;20460;-77
2022/10/04 12:28:10;;;;;;;1.50;0.90;;;22.60;79.80;;;;;;5044656;28;21019;-78
2022/10/04 12:30:57;;;;;;;1.50;0.90;;;22.60;80.50;;;;;;5019229;28;20470;-77
2022/10/04 12:33:34;;;;;;;1.50;0.90;;;22.50;83.60;;;;;;5035052;28;20478;-76
2022/10/04 12:36:19;;;;;;;1.50;1.00;;;22.70;81.60;;;;;;5036161;28;20890;-77
2022/10/04 12:38:59;;;;;;;1.50;0.90;;;22.80;80.10;;;;;;5060234;28;20459;-77
2022/10/04 12:41:35;;;;;;;1.50;0.90;;;23.00;80.40;;;;;;5040336;28;20477;-77
2022/10/04 12:44:25;;;;;;;1.50;0.90;;;23.00;79.60;;;;;;5054515;28;21119;-77
2022/10/04 12:47:05;;;;;;;1.50;0.90;;;23.20;80.50;;;;;;5042501;28;21006;-77
2022/10/04 12:49:46;;;;;;;1.50;0.90;;;23.30;80.50;;;;;;5052537;28;20450;-77
2022/10/04 12:52:18;;;;;;;1.50;0.90;;;23.00;78.70;;;;;;5037042;28;20505;-78
2022/10/04 12:54:52;;;;;;;1.50;0.83;;;23.00;80.20;;;;;;5046758;28;20469;-77
2022/10/04 12:57:50;;;;;;;1.50;0.90;;;23.10;81.10;;;;;;5045905;28;20996;-77
2022/10/04 13:00:21;;;;;;;1.50;0.90;;;23.30;79.20;;;;;;5011819;28;20477;-77
2022/10/04 13:03:07;;;;;;;1.50;0.87;;;23.20;79.40;;;;;;5049658;28;20477;-77
2022/10/04 13:05:41;;;;;;;1.50;0.87;;;23.30;78.90;;;;;;5045538;28;20562;-78
2022/10/04 13:08:21;;;;;;;1.50;1.00;;;23.30;79.10;;;;;;5052197;28;20591;-79
2022/10/04 13:11:07;;;;;;;1.50;0.90;;;23.40;80.40;;;;;;5042307;28;21025;-79
2022/10/04 13:13:54;;;;;;;1.50;0.90;;;23.40;78.90;;;;;;5060054;28;20945;-79
2022/10/04 13:16:33;;;;;;;1.50;0.90;;;23.10;79.30;;;;;;5040572;28;20539;-79
2022/10/04 13:19:10;;;;;;;1.50;0.90;;;23.00;80.00;;;;;;5055696;28;20465;-79
2022/10/04 13:22:15;;;;;;;1.50;1.00;;;23.00;79.50;;;;;;5044089;28;20838;-79
2022/10/04 13:24:56;;;;;;;1.50;0.80;;;23.10;81.10;;;;;;5017605;28;20472;-78
2022/10/04 13:27:37;;;;;;;1.47;0.90;;;23.20;82.40;;;;;;5048847;28;20491;-78
2022/10/04 13:30:15;;;;;;;1.50;0.90;;;23.30;80.40;;;;;;5047406;28;20676;-78
2022/10/04 13:32:49;;;;;;;1.50;0.90;;;23.30;80.10;;;;;;5050741;28;20481;-79
2022/10/04 13:35:24;;;;;;;1.50;0.90;;;23.00;79.40;;;;;;5047497;28;20869;-79
2022/10/04 13:38:08;;;;;;;1.47;0.90;;;22.90;79.50;;;;;;5052259;28;20678;-78
2022/10/04 13:41:11;;;;;;;1.50;0.90;;;22.70;81.90;;;;;;5046561;28;20525;-80
2022/10/04 13:44:07;;;;;;;1.50;0.90;;;22.80;81.30;;;;;;5051906;28;20478;-79
2022/10/04 13:46:43;;;;;;;1.50;0.90;;;22.90;82.20;;;;;;5041322;28;20512;-79
2022/10/04 13:49:29;;;;;;;1.50;0.87;;;23.00;82.30;;;;;;5054270;28;20975;-79
2022/10/04 13:58:15;;;;;;;1.47;0.90;;;22.50;81.40;;;;;;5051016;28;20936;-79
2022/10/04 14:01:00;;;;;;;1.50;0.90;;;22.60;82.70;;;;;;5047563;28;20470;-78
2022/10/04 14:03:45;;;;;;;1.83;1.73;;;22.70;83.70;;;;;;5037302;28;20486;-78
2022/10/04 14:06:31;;;;;;;1.50;0.90;;;22.80;81.30;;;;;;5042445;28;20477;-77
2022/10/04 14:09:34;;;;;;;1.50;1.00;;;22.80;80.60;;;;;;5056687;28;20621;-79
2022/10/04 14:12:40;;;;;;;1.47;0.90;;;22.60;80.80;;;;;;5045126;28;20473;-78
2022/10/04 14:15:49;;;;;;;1.50;0.90;;;22.40;81.30;;;;;;5045759;28;20477;-79